sensor_id;sensor_type;location;lat;lon;timestamp;P1;durP1;ratioP1;P2;durP2;ratioP2
49392;SDS011;35268;42.642;23.308;2023-02-11T00:03:54;24.23;;;8.20;;
49392;SDS011;35268;42.642;23.308;2023-02-11T00:06:21;22.55;;;8.20;;
49392;SDS011;35268;42.642;23.308;2023-02-11T00:08:47;22.95;;;9.18;;
49392;SDS011;35268;42.642;23.308;2023-02-11T00:11:14;22.30;;;9.30;;
49392;SDS011;35268;42.642;23.308;2023-02-11T00:13:41;21.02;;;9.25;;
49392;SDS011;35268;42.642;23.308;2023-02-11T00:16:11;24.20;;;9.38;;
49392;SDS011;35268;42.642;23.308;2023-02-11T00:18:39;25.23;;;8.37;;
49392;SDS011;35268;42.642;23.308;2023-02-11T00:21:17;19.88;;;9.02;;
49392;SDS011;35268;42.642;23.308;2023-02-11T00:23:45;18.33;;;8.10;;
49392;SDS011;35268;42.642;23.308;2023-02-11T00:26:12;22.63;;;8.60;;
49392;SDS011;35268;42.642;23.308;2023-02-11T00:28:48;23.50;;;9.50;;
49392;SDS011;35268;42.642;23.308;2023-02-11T00:31:15;24.83;;;10.63;;
49392;SDS011;35268;42.642;23.308;2023-02-11T00:33:42;25.48;;;10.07;;
49392;SDS011;35268;42.642;23.308;2023-02-11T00:36:09;21.00;;;8.63;;
49392;SDS011;35268;42.642;23.308;2023-02-11T00:38:38;22.67;;;8.93;;
49392;SDS011;35268;42.642;23.308;2023-02-11T00:41:06;21.13;;;8.93;;
49392;SDS011;35268;42.642;23.308;2023-02-11T00:43:32;20.88;;;8.98;;
49392;SDS011;35268;42.642;23.308;2023-02-11T00:45:58;19.10;;;7.50;;
49392;SDS011;35268;42.642;23.308;2023-02-11T00:48:23;24.20;;;7.72;;
49392;SDS011;35268;42.642;23.308;2023-02-11T00:50:49;24.02;;;8.73;;
49392;SDS011;35268;42.642;23.308;2023-02-11T00:53:14;27.98;;;8.95;;
49392;SDS011;35268;42.642;23.308;2023-02-11T00:55:40;22.83;;;9.20;;
49392;SDS011;35268;42.642;23.308;2023-02-11T00:58:05;16.08;;;7.38;;
49392;SDS011;35268;42.642;23.308;2023-02-11T01:00:30;18.58;;;7.88;;
49392;SDS011;35268;42.642;23.308;2023-02-11T01:02:56;19.70;;;6.95;;
49392;SDS011;35268;42.642;23.308;2023-02-11T01:05:22;16.55;;;6.97;;
49392;SDS011;35268;42.642;23.308;2023-02-11T01:07:47;20.35;;;8.45;;
49392;SDS011;35268;42.642;23.308;2023-02-11T01:10:13;22.92;;;8.23;;
49392;SDS011;35268;42.642;23.308;2023-02-11T01:12:38;21.77;;;8.00;;
49392;SDS011;35268;42.642;23.308;2023-02-11T01:15:04;19.05;;;8.35;;
49392;SDS011;35268;42.642;23.308;2023-02-11T01:17:32;18.27;;;8.02;;
49392;SDS011;35268;42.642;23.308;2023-02-11T01:19:58;18.15;;;8.25;;
49392;SDS011;35268;42.642;23.308;2023-02-11T01:22:23;18.10;;;7.95;;
49392;SDS011;35268;42.642;23.308;2023-02-11T01:24:49;21.52;;;7.75;;
49392;SDS011;35268;42.642;23.308;2023-02-11T01:27:14;27.95;;;9.02;;
49392;SDS011;35268;42.642;23.308;2023-02-11T01:29:40;18.42;;;8.63;;
49392;SDS011;35268;42.642;23.308;2023-02-11T01:32:05;19.63;;;8.82;;
49392;SDS011;35268;42.642;23.308;2023-02-11T01:34:31;20.10;;;8.45;;
49392;SDS011;35268;42.642;23.308;2023-02-11T01:36:59;25.40;;;9.20;;
49392;SDS011;35268;42.642;23.308;2023-02-11T01:39:25;21.33;;;8.63;;
49392;SDS011;35268;42.642;23.308;2023-02-11T01:41:51;20.13;;;8.32;;
49392;SDS011;35268;42.642;23.308;2023-02-11T01:44:25;24.40;;;8.82;;
49392;SDS011;35268;42.642;23.308;2023-02-11T01:46:51;23.10;;;9.40;;
49392;SDS011;35268;42.642;23.308;2023-02-11T01:49:18;23.00;;;9.20;;
49392;SDS011;35268;42.642;23.308;2023-02-11T01:54:48;20.45;;;8.77;;
49392;SDS011;35268;42.642;23.308;2023-02-11T01:57:36;17.40;;;7.88;;
49392;SDS011;35268;42.642;23.308;2023-02-11T02:00:14;21.45;;;9.68;;
49392;SDS011;35268;42.642;23.308;2023-02-11T02:03:10;26.95;;;9.35;;
49392;SDS011;35268;42.642;23.308;2023-02-11T02:08:35;22.73;;;10.13;;
49392;SDS011;35268;42.642;23.308;2023-02-11T02:11:05;22.30;;;9.07;;
49392;SDS011;35268;42.642;23.308;2023-02-11T02:13:31;24.80;;;9.30;;
49392;SDS011;35268;42.642;23.308;2023-02-11T02:18:35;19.77;;;8.35;;
49392;SDS011;35268;42.642;23.308;2023-02-11T02:24:26;22.80;;;7.20;;
49392;SDS011;35268;42.642;23.308;2023-02-11T02:32:57;19.83;;;8.38;;
49392;SDS011;35268;42.642;23.308;2023-02-11T02:38:07;21.42;;;8.30;;
49392;SDS011;35268;42.642;23.308;2023-02-11T02:43:14;21.00;;;8.35;;
49392;SDS011;35268;42.642;23.308;2023-02-11T02:45:41;19.38;;;7.40;;
49392;SDS011;35268;42.642;23.308;2023-02-11T02:48:20;16.20;;;7.35;;
49392;SDS011;35268;42.642;23.308;2023-02-11T02:53:20;17.77;;;7.22;;
49392;SDS011;35268;42.642;23.308;2023-02-11T02:56:13;16.45;;;6.53;;
49392;SDS011;35268;42.642;23.308;2023-02-11T02:59:05;20.17;;;7.43;;
49392;SDS011;35268;42.642;23.308;2023-02-11T03:04:22;19.70;;;7.18;;
49392;SDS011;35268;42.642;23.308;2023-02-11T03:09:45;25.25;;;9.68;;
49392;SDS011;35268;42.642;23.308;2023-02-11T03:12:15;27.67;;;9.00;;
49392;SDS011;35268;42.642;23.308;2023-02-11T03:14:42;19.90;;;8.55;;
49392;SDS011;35268;42.642;23.308;2023-02-11T03:17:09;17.38;;;7.95;;
49392;SDS011;35268;42.642;23.308;2023-02-11T03:19:38;21.83;;;7.32;;
49392;SDS011;35268;42.642;23.308;2023-02-11T03:22:09;19.23;;;7.25;;
49392;SDS011;35268;42.642;23.308;2023-02-11T03:24:38;19.80;;;8.90;;
49392;SDS011;35268;42.642;23.308;2023-02-11T03:27:07;22.13;;;8.93;;
49392;SDS011;35268;42.642;23.308;2023-02-11T03:29:42;17.20;;;7.20;;
49392;SDS011;35268;42.642;23.308;2023-02-11T03:32:17;15.90;;;6.78;;
49392;SDS011;35268;42.642;23.308;2023-02-11T03:34:56;20.30;;;8.02;;
49392;SDS011;35268;42.642;23.308;2023-02-11T03:37:31;23.88;;;7.78;;
49392;SDS011;35268;42.642;23.308;2023-02-11T03:40:12;21.55;;;7.82;;
49392;SDS011;35268;42.642;23.308;2023-02-11T03:42:44;17.92;;;6.72;;
49392;SDS011;35268;42.642;23.308;2023-02-11T03:45:14;23.83;;;7.80;;
49392;SDS011;35268;42.642;23.308;2023-02-11T03:47:45;23.70;;;8.23;;
49392;SDS011;35268;42.642;23.308;2023-02-11T03:50:13;19.35;;;8.13;;
49392;SDS011;35268;42.642;23.308;2023-02-11T03:52:40;21.40;;;8.88;;
49392;SDS011;35268;42.642;23.308;2023-02-11T03:55:14;25.77;;;8.38;;
49392;SDS011;35268;42.642;23.308;2023-02-11T03:57:42;24.73;;;8.50;;
49392;SDS011;35268;42.642;23.308;2023-02-11T04:00:08;22.52;;;8.82;;
49392;SDS011;35268;42.642;23.308;2023-02-11T04:02:35;16.15;;;8.60;;
49392;SDS011;35268;42.642;23.308;2023-02-11T04:05:05;19.20;;;7.70;;
49392;SDS011;35268;42.642;23.308;2023-02-11T04:07:31;19.95;;;8.40;;
49392;SDS011;35268;42.642;23.308;2023-02-11T04:09:57;24.42;;;9.27;;
49392;SDS011;35268;42.642;23.308;2023-02-11T04:12:22;19.50;;;8.60;;
49392;SDS011;35268;42.642;23.308;2023-02-11T04:14:48;22.13;;;9.68;;
49392;SDS011;35268;42.642;23.308;2023-02-11T04:17:13;22.15;;;9.88;;
49392;SDS011;35268;42.642;23.308;2023-02-11T04:19:39;21.08;;;9.73;;
49392;SDS011;35268;42.642;23.308;2023-02-11T04:22:05;23.33;;;10.30;;
49392;SDS011;35268;42.642;23.308;2023-02-11T04:24:31;20.98;;;9.43;;
49392;SDS011;35268;42.642;23.308;2023-02-11T04:26:56;14.52;;;7.15;;
49392;SDS011;35268;42.642;23.308;2023-02-11T04:29:22;20.00;;;8.50;;
49392;SDS011;35268;42.642;23.308;2023-02-11T04:31:47;19.92;;;8.10;;
49392;SDS011;35268;42.642;23.308;2023-02-11T04:34:13;20.23;;;8.27;;
49392;SDS011;35268;42.642;23.308;2023-02-11T04:36:39;26.00;;;8.90;;
49392;SDS011;35268;42.642;23.308;2023-02-11T04:39:04;26.85;;;8.75;;
49392;SDS011;35268;42.642;23.308;2023-02-11T04:41:30;26.30;;;9.32;;
49392;SDS011;35268;42.642;23.308;2023-02-11T04:43:55;21.27;;;8.45;;
49392;SDS011;35268;42.642;23.308;2023-02-11T04:46:20;22.33;;;8.80;;
49392;SDS011;35268;42.642;23.308;2023-02-11T04:48:46;22.42;;;9.13;;
49392;SDS011;35268;42.642;23.308;2023-02-11T04:51:11;25.33;;;9.82;;
49392;SDS011;35268;42.642;23.308;2023-02-11T04:53:37;23.77;;;9.55;;
49392;SDS011;35268;42.642;23.308;2023-02-11T04:56:02;19.63;;;8.00;;
49392;SDS011;35268;42.642;23.308;2023-02-11T04:58:28;23.48;;;9.23;;
49392;SDS011;35268;42.642;23.308;2023-02-11T05:00:54;21.40;;;9.70;;
49392;SDS011;35268;42.642;23.308;2023-02-11T05:03:19;27.02;;;9.02;;
49392;SDS011;35268;42.642;23.308;2023-02-11T05:05:44;24.55;;;9.55;;
49392;SDS011;35268;42.642;23.308;2023-02-11T05:08:10;21.38;;;8.85;;
49392;SDS011;35268;42.642;23.308;2023-02-11T05:10:36;30.42;;;9.85;;
49392;SDS011;35268;42.642;23.308;2023-02-11T05:13:02;20.95;;;8.60;;
49392;SDS011;35268;42.642;23.308;2023-02-11T05:15:27;27.90;;;9.73;;
49392;SDS011;35268;42.642;23.308;2023-02-11T05:17:53;26.40;;;10.35;;
49392;SDS011;35268;42.642;23.308;2023-02-11T05:20:18;24.08;;;9.70;;
49392;SDS011;35268;42.642;23.308;2023-02-11T05:22:44;25.83;;;9.43;;
49392;SDS011;35268;42.642;23.308;2023-02-11T05:25:10;21.48;;;8.50;;
49392;SDS011;35268;42.642;23.308;2023-02-11T05:27:35;21.13;;;9.57;;
49392;SDS011;35268;42.642;23.308;2023-02-11T05:30:01;26.20;;;10.50;;
49392;SDS011;35268;42.642;23.308;2023-02-11T05:32:27;23.00;;;10.48;;
49392;SDS011;35268;42.642;23.308;2023-02-11T05:34:52;23.55;;;10.10;;
49392;SDS011;35268;42.642;23.308;2023-02-11T05:37:17;29.05;;;10.20;;
49392;SDS011;35268;42.642;23.308;2023-02-11T05:39:43;29.08;;;11.15;;
49392;SDS011;35268;42.642;23.308;2023-02-11T05:42:08;26.50;;;10.20;;
49392;SDS011;35268;42.642;23.308;2023-02-11T05:44:34;29.50;;;11.35;;
49392;SDS011;35268;42.642;23.308;2023-02-11T05:46:59;37.20;;;13.85;;
49392;SDS011;35268;42.642;23.308;2023-02-11T05:49:25;38.88;;;13.43;;
49392;SDS011;35268;42.642;23.308;2023-02-11T05:51:50;31.42;;;11.77;;
49392;SDS011;35268;42.642;23.308;2023-02-11T05:54:15;31.48;;;12.55;;
49392;SDS011;35268;42.642;23.308;2023-02-11T05:56:41;25.80;;;10.68;;
49392;SDS011;35268;42.642;23.308;2023-02-11T05:59:07;26.83;;;10.80;;
49392;SDS011;35268;42.642;23.308;2023-02-11T06:01:33;36.55;;;12.10;;
49392;SDS011;35268;42.642;23.308;2023-02-11T06:03:58;27.00;;;10.68;;
49392;SDS011;35268;42.642;23.308;2023-02-11T06:06:24;38.55;;;12.10;;
49392;SDS011;35268;42.642;23.308;2023-02-11T06:08:50;28.08;;;11.57;;
49392;SDS011;35268;42.642;23.308;2023-02-11T06:11:15;30.15;;;11.55;;
49392;SDS011;35268;42.642;23.308;2023-02-11T06:13:42;41.45;;;13.30;;
49392;SDS011;35268;42.642;23.308;2023-02-11T06:16:07;28.23;;;12.20;;
49392;SDS011;35268;42.642;23.308;2023-02-11T06:18:33;35.08;;;12.65;;
49392;SDS011;35268;42.642;23.308;2023-02-11T06:20:59;26.80;;;12.95;;
49392;SDS011;35268;42.642;23.308;2023-02-11T06:23:24;30.70;;;12.20;;
49392;SDS011;35268;42.642;23.308;2023-02-11T06:25:50;36.80;;;13.57;;
49392;SDS011;35268;42.642;23.308;2023-02-11T06:28:16;31.85;;;14.70;;
49392;SDS011;35268;42.642;23.308;2023-02-11T06:30:42;37.08;;;13.70;;
49392;SDS011;35268;42.642;23.308;2023-02-11T06:33:08;41.40;;;12.93;;
49392;SDS011;35268;42.642;23.308;2023-02-11T06:35:33;34.28;;;13.95;;
49392;SDS011;35268;42.642;23.308;2023-02-11T06:37:59;33.30;;;13.95;;
49392;SDS011;35268;42.642;23.308;2023-02-11T06:40:25;31.98;;;14.20;;
49392;SDS011;35268;42.642;23.308;2023-02-11T06:42:51;35.97;;;14.98;;
49392;SDS011;35268;42.642;23.308;2023-02-11T06:45:17;39.67;;;15.90;;
49392;SDS011;35268;42.642;23.308;2023-02-11T06:47:42;45.63;;;15.70;;
49392;SDS011;35268;42.642;23.308;2023-02-11T06:50:10;33.65;;;14.48;;
49392;SDS011;35268;42.642;23.308;2023-02-11T06:52:37;34.67;;;15.80;;
49392;SDS011;35268;42.642;23.308;2023-02-11T06:55:05;42.38;;;15.23;;
49392;SDS011;35268;42.642;23.308;2023-02-11T06:57:31;38.75;;;15.82;;
49392;SDS011;35268;42.642;23.308;2023-02-11T06:59:57;38.47;;;16.27;;
49392;SDS011;35268;42.642;23.308;2023-02-11T07:02:22;39.20;;;15.65;;
49392;SDS011;35268;42.642;23.308;2023-02-11T07:04:48;40.55;;;16.50;;
49392;SDS011;35268;42.642;23.308;2023-02-11T07:07:14;35.70;;;15.30;;
49392;SDS011;35268;42.642;23.308;2023-02-11T07:09:39;41.63;;;16.48;;
49392;SDS011;35268;42.642;23.308;2023-02-11T07:12:05;36.47;;;13.93;;
49392;SDS011;35268;42.642;23.308;2023-02-11T07:14:31;42.08;;;14.52;;
49392;SDS011;35268;42.642;23.308;2023-02-11T07:16:56;30.25;;;13.52;;
49392;SDS011;35268;42.642;23.308;2023-02-11T07:19:22;37.28;;;12.35;;
49392;SDS011;35268;42.642;23.308;2023-02-11T07:21:47;30.65;;;10.90;;
49392;SDS011;35268;42.642;23.308;2023-02-11T07:24:13;24.42;;;10.77;;
49392;SDS011;35268;42.642;23.308;2023-02-11T07:26:38;29.83;;;11.77;;
49392;SDS011;35268;42.642;23.308;2023-02-11T07:29:04;32.88;;;12.18;;
49392;SDS011;35268;42.642;23.308;2023-02-11T07:31:30;33.85;;;13.25;;
49392;SDS011;35268;42.642;23.308;2023-02-11T07:33:57;32.58;;;12.10;;
49392;SDS011;35268;42.642;23.308;2023-02-11T07:36:24;24.88;;;11.63;;
49392;SDS011;35268;42.642;23.308;2023-02-11T07:38:50;27.15;;;12.38;;
49392;SDS011;35268;42.642;23.308;2023-02-11T07:41:17;35.15;;;12.60;;
49392;SDS011;35268;42.642;23.308;2023-02-11T07:43:44;31.95;;;12.35;;
49392;SDS011;35268;42.642;23.308;2023-02-11T07:46:11;30.65;;;12.35;;
49392;SDS011;35268;42.642;23.308;2023-02-11T07:48:39;35.80;;;12.35;;
49392;SDS011;35268;42.642;23.308;2023-02-11T07:51:14;36.75;;;12.70;;
49392;SDS011;35268;42.642;23.308;2023-02-11T07:53:45;40.38;;;11.07;;
49392;SDS011;35268;42.642;23.308;2023-02-11T07:56:11;27.92;;;11.40;;
49392;SDS011;35268;42.642;23.308;2023-02-11T07:58:38;29.13;;;12.35;;
49392;SDS011;35268;42.642;23.308;2023-02-11T08:01:06;31.80;;;11.98;;
49392;SDS011;35268;42.642;23.308;2023-02-11T08:03:34;32.40;;;12.25;;
49392;SDS011;35268;42.642;23.308;2023-02-11T08:06:08;30.73;;;12.40;;
49392;SDS011;35268;42.642;23.308;2023-02-11T08:08:35;29.67;;;11.90;;
49392;SDS011;35268;42.642;23.308;2023-02-11T08:11:07;30.08;;;11.18;;
49392;SDS011;35268;42.642;23.308;2023-02-11T08:13:35;35.88;;;11.75;;
49392;SDS011;35268;42.642;23.308;2023-02-11T08:16:00;40.85;;;12.40;;
49392;SDS011;35268;42.642;23.308;2023-02-11T08:18:26;33.03;;;12.00;;
49392;SDS011;35268;42.642;23.308;2023-02-11T08:20:51;28.17;;;10.82;;
49392;SDS011;35268;42.642;23.308;2023-02-11T08:23:17;26.75;;;10.70;;
49392;SDS011;35268;42.642;23.308;2023-02-11T08:25:42;29.67;;;11.48;;
49392;SDS011;35268;42.642;23.308;2023-02-11T08:28:08;29.23;;;10.65;;
49392;SDS011;35268;42.642;23.308;2023-02-11T08:30:34;22.95;;;10.35;;
49392;SDS011;35268;42.642;23.308;2023-02-11T08:32:59;29.90;;;11.60;;
49392;SDS011;35268;42.642;23.308;2023-02-11T08:35:25;24.42;;;9.90;;
49392;SDS011;35268;42.642;23.308;2023-02-11T08:37:51;31.02;;;11.70;;
49392;SDS011;35268;42.642;23.308;2023-02-11T08:40:17;28.10;;;9.65;;
49392;SDS011;35268;42.642;23.308;2023-02-11T08:42:42;25.08;;;10.32;;
49392;SDS011;35268;42.642;23.308;2023-02-11T08:45:08;35.35;;;12.63;;
49392;SDS011;35268;42.642;23.308;2023-02-11T08:47:34;28.92;;;11.93;;
49392;SDS011;35268;42.642;23.308;2023-02-11T08:50:00;29.25;;;12.07;;
49392;SDS011;35268;42.642;23.308;2023-02-11T08:52:26;31.25;;;12.00;;
49392;SDS011;35268;42.642;23.308;2023-02-11T08:54:51;28.08;;;12.13;;
49392;SDS011;35268;42.642;23.308;2023-02-11T08:57:17;30.67;;;13.18;;
49392;SDS011;35268;42.642;23.308;2023-02-11T08:59:42;30.63;;;12.40;;
49392;SDS011;35268;42.642;23.308;2023-02-11T09:02:11;33.13;;;12.65;;
49392;SDS011;35268;42.642;23.308;2023-02-11T09:04:37;36.70;;;13.13;;
49392;SDS011;35268;42.642;23.308;2023-02-11T09:07:03;33.63;;;12.90;;
49392;SDS011;35268;42.642;23.308;2023-02-11T09:09:29;32.78;;;14.95;;
49392;SDS011;35268;42.642;23.308;2023-02-11T09:11:54;33.40;;;13.60;;
49392;SDS011;35268;42.642;23.308;2023-02-11T09:14:21;28.13;;;13.13;;
49392;SDS011;35268;42.642;23.308;2023-02-11T09:16:48;30.13;;;13.50;;
49392;SDS011;35268;42.642;23.308;2023-02-11T09:19:14;34.97;;;14.25;;
49392;SDS011;35268;42.642;23.308;2023-02-11T09:21:41;28.88;;;13.80;;
49392;SDS011;35268;42.642;23.308;2023-02-11T09:24:06;32.97;;;13.90;;
49392;SDS011;35268;42.642;23.308;2023-02-11T09:26:33;36.38;;;13.05;;
49392;SDS011;35268;42.642;23.308;2023-02-11T09:29:00;34.85;;;14.07;;
49392;SDS011;35268;42.642;23.308;2023-02-11T09:31:27;29.92;;;13.00;;
49392;SDS011;35268;42.642;23.308;2023-02-11T09:33:55;24.85;;;11.02;;
49392;SDS011;35268;42.642;23.308;2023-02-11T09:36:24;29.23;;;12.50;;
49392;SDS011;35268;42.642;23.308;2023-02-11T09:38:55;24.10;;;11.03;;
49392;SDS011;35268;42.642;23.308;2023-02-11T09:43:52;33.03;;;13.52;;
49392;SDS011;35268;42.642;23.308;2023-02-11T09:46:22;27.38;;;11.60;;
49392;SDS011;35268;42.642;23.308;2023-02-11T09:48:51;25.65;;;12.35;;
49392;SDS011;35268;42.642;23.308;2023-02-11T09:51:30;26.25;;;11.48;;
49392;SDS011;35268;42.642;23.308;2023-02-11T09:54:28;32.15;;;11.98;;
49392;SDS011;35268;42.642;23.308;2023-02-11T09:56:59;31.20;;;12.55;;
49392;SDS011;35268;42.642;23.308;2023-02-11T09:59:25;31.63;;;11.93;;
49392;SDS011;35268;42.642;23.308;2023-02-11T10:01:59;26.75;;;11.95;;
49392;SDS011;35268;42.642;23.308;2023-02-11T10:07:22;34.67;;;12.02;;
49392;SDS011;35268;42.642;23.308;2023-02-11T10:17:25;20.97;;;9.63;;
49392;SDS011;35268;42.642;23.308;2023-02-11T10:20:24;19.23;;;8.45;;
49392;SDS011;35268;42.642;23.308;2023-02-11T10:25:32;22.63;;;10.23;;
49392;SDS011;35268;42.642;23.308;2023-02-11T10:28:00;21.90;;;9.93;;
49392;SDS011;35268;42.642;23.308;2023-02-11T10:33:23;21.55;;;9.07;;
49392;SDS011;35268;42.642;23.308;2023-02-11T10:35:52;21.67;;;9.35;;
49392;SDS011;35268;42.642;23.308;2023-02-11T10:38:17;29.58;;;10.70;;
49392;SDS011;35268;42.642;23.308;2023-02-11T10:40:43;26.50;;;9.68;;
49392;SDS011;35268;42.642;23.308;2023-02-11T10:43:13;30.42;;;9.50;;
49392;SDS011;35268;42.642;23.308;2023-02-11T10:45:42;23.90;;;10.35;;
49392;SDS011;35268;42.642;23.308;2023-02-11T10:53:46;22.35;;;9.23;;
49392;SDS011;35268;42.642;23.308;2023-02-11T10:56:20;19.70;;;8.38;;
49392;SDS011;35268;42.642;23.308;2023-02-11T10:58:57;20.50;;;7.90;;
49392;SDS011;35268;42.642;23.308;2023-02-11T11:05:13;22.10;;;8.75;;
49392;SDS011;35268;42.642;23.308;2023-02-11T11:07:22;20.33;;;8.82;;
49392;SDS011;35268;42.642;23.308;2023-02-11T11:10:00;27.45;;;8.25;;
49392;SDS011;35268;42.642;23.308;2023-02-11T11:15:01;20.90;;;8.95;;
49392;SDS011;35268;42.642;23.308;2023-02-11T11:17:38;16.85;;;7.47;;
49392;SDS011;35268;42.642;23.308;2023-02-11T11:22:52;24.15;;;8.60;;
49392;SDS011;35268;42.642;23.308;2023-02-11T11:25:40;23.33;;;9.80;;
49392;SDS011;35268;42.642;23.308;2023-02-11T11:28:16;16.90;;;7.22;;
49392;SDS011;35268;42.642;23.308;2023-02-11T11:30:46;21.35;;;9.35;;
49392;SDS011;35268;42.642;23.308;2023-02-11T11:33:22;21.73;;;8.68;;
49392;SDS011;35268;42.642;23.308;2023-02-11T11:35:54;21.02;;;9.35;;
49392;SDS011;35268;42.642;23.308;2023-02-11T11:38:21;19.13;;;8.90;;
49392;SDS011;35268;42.642;23.308;2023-02-11T11:40:49;20.92;;;8.75;;
49392;SDS011;35268;42.642;23.308;2023-02-11T11:43:37;19.38;;;8.10;;
49392;SDS011;35268;42.642;23.308;2023-02-11T11:46:02;20.10;;;8.75;;
49392;SDS011;35268;42.642;23.308;2023-02-11T11:48:31;23.85;;;8.93;;
49392;SDS011;35268;42.642;23.308;2023-02-11T11:51:05;17.45;;;7.85;;
49392;SDS011;35268;42.642;23.308;2023-02-11T11:53:57;19.30;;;8.35;;
49392;SDS011;35268;42.642;23.308;2023-02-11T11:56:26;17.35;;;8.10;;
49392;SDS011;35268;42.642;23.308;2023-02-11T11:59:01;19.33;;;9.38;;
49392;SDS011;35268;42.642;23.308;2023-02-11T12:01:57;18.85;;;8.38;;
49392;SDS011;35268;42.642;23.308;2023-02-11T12:04:33;21.38;;;8.07;;
49392;SDS011;35268;42.642;23.308;2023-02-11T12:12:24;19.70;;;8.45;;
49392;SDS011;35268;42.642;23.308;2023-02-11T12:15:10;17.70;;;7.97;;
49392;SDS011;35268;42.642;23.308;2023-02-11T12:18:00;14.82;;;6.40;;
49392;SDS011;35268;42.642;23.308;2023-02-11T12:31:42;15.65;;;6.50;;
49392;SDS011;35268;42.642;23.308;2023-02-11T12:36:59;11.60;;;6.70;;
49392;SDS011;35268;42.642;23.308;2023-02-11T12:42:15;21.65;;;7.45;;
49392;SDS011;35268;42.642;23.308;2023-02-11T12:50:34;18.77;;;7.72;;
49392;SDS011;35268;42.642;23.308;2023-02-11T12:53:17;19.52;;;8.02;;
49392;SDS011;35268;42.642;23.308;2023-02-11T12:56:00;14.57;;;7.20;;
49392;SDS011;35268;42.642;23.308;2023-02-11T12:58:30;19.52;;;8.23;;
49392;SDS011;35268;42.642;23.308;2023-02-11T13:01:00;16.73;;;8.07;;
49392;SDS011;35268;42.642;23.308;2023-02-11T13:03:34;19.10;;;7.60;;
49392;SDS011;35268;42.642;23.308;2023-02-11T13:06:06;21.48;;;7.78;;
49392;SDS011;35268;42.642;23.308;2023-02-11T13:08:43;18.30;;;7.97;;
49392;SDS011;35268;42.642;23.308;2023-02-11T13:13:46;16.73;;;7.80;;
49392;SDS011;35268;42.642;23.308;2023-02-11T13:37:57;17.35;;;8.00;;
49392;SDS011;35268;42.642;23.308;2023-02-11T13:40:25;17.50;;;7.03;;
49392;SDS011;35268;42.642;23.308;2023-02-11T13:42:54;19.08;;;8.43;;
49392;SDS011;35268;42.642;23.308;2023-02-11T13:47:57;15.43;;;7.30;;
49392;SDS011;35268;42.642;23.308;2023-02-11T13:50:24;16.20;;;7.88;;
49392;SDS011;35268;42.642;23.308;2023-02-11T13:53:01;18.42;;;7.60;;
49392;SDS011;35268;42.642;23.308;2023-02-11T13:55:28;16.85;;;7.40;;
49392;SDS011;35268;42.642;23.308;2023-02-11T14:14:11;23.30;;;8.48;;
49392;SDS011;35268;42.642;23.308;2023-02-11T14:19:38;15.48;;;6.65;;
49392;SDS011;35268;42.642;23.308;2023-02-11T14:24:44;14.20;;;7.05;;
49392;SDS011;35268;42.642;23.308;2023-02-11T14:30:33;14.23;;;7.72;;
49392;SDS011;35268;42.642;23.308;2023-02-11T14:43:51;22.17;;;8.60;;
49392;SDS011;35268;42.642;23.308;2023-02-11T14:46:21;19.70;;;8.15;;
49392;SDS011;35268;42.642;23.308;2023-02-11T14:48:49;18.73;;;8.32;;
49392;SDS011;35268;42.642;23.308;2023-02-11T14:51:25;18.73;;;8.63;;
49392;SDS011;35268;42.642;23.308;2023-02-11T14:53:56;20.50;;;9.25;;
49392;SDS011;35268;42.642;23.308;2023-02-11T14:56:26;19.80;;;8.30;;
49392;SDS011;35268;42.642;23.308;2023-02-11T14:58:55;22.42;;;9.93;;
49392;SDS011;35268;42.642;23.308;2023-02-11T15:01:23;17.77;;;8.65;;
49392;SDS011;35268;42.642;23.308;2023-02-11T15:03:51;21.48;;;9.82;;
49392;SDS011;35268;42.642;23.308;2023-02-11T15:06:35;18.00;;;8.90;;
49392;SDS011;35268;42.642;23.308;2023-02-11T15:11:31;21.85;;;9.75;;
49392;SDS011;35268;42.642;23.308;2023-02-11T15:14:08;21.75;;;9.90;;
49392;SDS011;35268;42.642;23.308;2023-02-11T15:16:55;28.63;;;10.32;;
49392;SDS011;35268;42.642;23.308;2023-02-11T15:19:30;22.33;;;10.02;;
49392;SDS011;35268;42.642;23.308;2023-02-11T15:22:00;22.27;;;10.75;;
49392;SDS011;35268;42.642;23.308;2023-02-11T15:24:31;26.80;;;10.27;;
49392;SDS011;35268;42.642;23.308;2023-02-11T15:29:43;25.98;;;10.50;;
49392;SDS011;35268;42.642;23.308;2023-02-11T15:32:14;27.05;;;10.07;;
49392;SDS011;35268;42.642;23.308;2023-02-11T15:34:42;26.92;;;11.40;;
49392;SDS011;35268;42.642;23.308;2023-02-11T15:37:19;23.35;;;11.38;;
49392;SDS011;35268;42.642;23.308;2023-02-11T15:39:50;25.08;;;11.20;;
49392;SDS011;35268;42.642;23.308;2023-02-11T15:44:45;31.50;;;12.98;;
49392;SDS011;35268;42.642;23.308;2023-02-11T15:47:11;34.42;;;14.25;;
49392;SDS011;35268;42.642;23.308;2023-02-11T15:49:43;29.88;;;14.90;;
49392;SDS011;35268;42.642;23.308;2023-02-11T15:52:10;36.80;;;13.60;;
49392;SDS011;35268;42.642;23.308;2023-02-11T15:54:38;32.35;;;13.23;;
49392;SDS011;35268;42.642;23.308;2023-02-11T15:57:05;32.88;;;15.18;;
49392;SDS011;35268;42.642;23.308;2023-02-11T15:59:37;35.88;;;15.55;;
49392;SDS011;35268;42.642;23.308;2023-02-11T16:10:21;41.33;;;14.82;;
49392;SDS011;35268;42.642;23.308;2023-02-11T16:12:58;31.33;;;15.43;;
49392;SDS011;35268;42.642;23.308;2023-02-11T16:15:42;32.95;;;13.50;;
49392;SDS011;35268;42.642;23.308;2023-02-11T16:18:29;34.88;;;14.70;;
49392;SDS011;35268;42.642;23.308;2023-02-11T16:21:01;31.38;;;12.55;;
49392;SDS011;35268;42.642;23.308;2023-02-11T16:23:32;29.75;;;13.02;;
49392;SDS011;35268;42.642;23.308;2023-02-11T16:26:04;26.83;;;10.63;;
49392;SDS011;35268;42.642;23.308;2023-02-11T16:28:35;24.15;;;10.85;;
49392;SDS011;35268;42.642;23.308;2023-02-11T16:31:01;25.98;;;11.25;;
49392;SDS011;35268;42.642;23.308;2023-02-11T16:33:28;28.20;;;11.00;;
49392;SDS011;35268;42.642;23.308;2023-02-11T16:35:53;26.55;;;12.07;;
49392;SDS011;35268;42.642;23.308;2023-02-11T16:38:19;27.33;;;12.35;;
49392;SDS011;35268;42.642;23.308;2023-02-11T16:40:45;29.35;;;12.55;;
49392;SDS011;35268;42.642;23.308;2023-02-11T16:43:13;26.33;;;11.35;;
49392;SDS011;35268;42.642;23.308;2023-02-11T16:45:39;22.83;;;11.00;;
49392;SDS011;35268;42.642;23.308;2023-02-11T16:48:05;34.25;;;12.98;;
49392;SDS011;35268;42.642;23.308;2023-02-11T16:50:32;26.00;;;11.30;;
49392;SDS011;35268;42.642;23.308;2023-02-11T16:52:58;29.50;;;11.45;;
49392;SDS011;35268;42.642;23.308;2023-02-11T16:55:26;33.92;;;12.27;;
49392;SDS011;35268;42.642;23.308;2023-02-11T16:57:52;30.95;;;12.45;;
49392;SDS011;35268;42.642;23.308;2023-02-11T17:00:17;27.33;;;13.05;;
49392;SDS011;35268;42.642;23.308;2023-02-11T17:02:44;26.90;;;12.18;;
49392;SDS011;35268;42.642;23.308;2023-02-11T17:05:16;30.75;;;12.98;;
49392;SDS011;35268;42.642;23.308;2023-02-11T17:07:44;31.52;;;12.25;;
49392;SDS011;35268;42.642;23.308;2023-02-11T17:10:17;33.00;;;13.18;;
49392;SDS011;35268;42.642;23.308;2023-02-11T17:12:46;25.27;;;12.10;;
49392;SDS011;35268;42.642;23.308;2023-02-11T17:15:12;25.98;;;12.68;;
49392;SDS011;35268;42.642;23.308;2023-02-11T17:17:37;30.10;;;13.52;;
49392;SDS011;35268;42.642;23.308;2023-02-11T17:20:03;32.00;;;12.20;;